createdAt,value
2018-09-14T00:00:50.458Z,11.30
2018-09-14T00:03:18.681Z,11.30
2018-09-14T00:05:46.896Z,11.40
2018-09-14T00:08:15.615Z,11.50
2018-09-14T00:10:43.838Z,11.60
2018-09-14T00:13:12.109Z,11.50
2018-09-14T00:15:40.461Z,11.50
2018-09-14T00:18:08.696Z,11.60
2018-09-14T00:20:37.113Z,11.50
2018-09-14T00:23:05.334Z,11.50
2018-09-14T00:25:33.554Z,11.50
2018-09-14T00:28:01.869Z,11.60
2018-09-14T00:30:30.111Z,11.50
2018-09-14T00:32:58.374Z,11.30
2018-09-14T00:35:26.645Z,11.30
2018-09-14T00:37:55.230Z,11.30
2018-09-14T00:40:23.483Z,11.30
2018-09-14T00:42:51.701Z,11.20
2018-09-14T00:45:19.974Z,11.10
2018-09-14T00:47:48.152Z,11.10
2018-09-14T00:50:16.354Z,11.10
2018-09-14T00:52:44.766Z,11.10
2018-09-14T00:55:12.954Z,11.00
2018-09-14T00:57:41.142Z,11.10
2018-09-14T01:00:09.449Z,11.10
2018-09-14T01:02:37.621Z,11.00
2018-09-14T01:05:05.846Z,11.10
2018-09-14T01:07:36.065Z,11.10
2018-09-14T01:10:05.274Z,11.10
2018-09-14T01:12:33.534Z,11.00
2018-09-14T01:15:02.154Z,10.90
2018-09-14T01:17:30.469Z,10.90
2018-09-14T01:19:58.669Z,10.90
2018-09-14T01:22:26.898Z,10.90
2018-09-14T01:24:55.082Z,10.90
2018-09-14T01:27:23.274Z,10.90
2018-09-14T01:29:51.717Z,10.80
2018-09-14T01:32:19.895Z,10.70
2018-09-14T01:34:48.067Z,10.70
2018-09-14T01:37:16.277Z,10.60
2018-09-14T01:39:44.473Z,10.60
2018-09-14T01:42:12.661Z,10.60
2018-09-14T01:44:41.539Z,10.60
2018-09-14T01:47:09.729Z,10.60
2018-09-14T01:49:37.949Z,10.60
2018-09-14T01:52:06.601Z,10.60
2018-09-14T01:54:34.834Z,10.60
2018-09-14T01:57:03.053Z,10.60
2018-09-14T01:59:31.434Z,10.60
2018-09-14T02:01:59.666Z,10.60
2018-09-14T02:04:27.852Z,10.60
2018-09-14T02:06:56.420Z,10.60
2018-09-14T02:09:24.638Z,10.50
2018-09-14T02:11:52.882Z,10.50
2018-09-14T02:14:21.693Z,10.50
2018-09-14T02:16:49.893Z,10.50
2018-09-14T02:19:18.086Z,10.60
2018-09-14T02:21:46.733Z,10.60
2018-09-14T02:24:14.924Z,10.60
2018-09-14T02:26:43.104Z,10.60
2018-09-14T02:29:11.449Z,10.60
2018-09-14T02:31:39.757Z,10.70
2018-09-14T02:34:07.951Z,10.70
2018-09-14T02:36:36.153Z,10.70
2018-09-14T02:39:06.325Z,10.70
2018-09-14T02:41:34.514Z,10.70
2018-09-14T02:44:03.085Z,10.70
2018-09-14T02:46:31.274Z,10.70
2018-09-14T02:48:59.467Z,10.70
2018-09-14T02:51:27.674Z,10.60
2018-09-14T02:53:55.869Z,10.60
2018-09-14T02:56:24.071Z,10.60
2018-09-14T02:58:52.849Z,10.60
2018-09-14T03:01:21.081Z,10.60
2018-09-14T03:03:49.342Z,10.60
2018-09-14T03:06:18.041Z,10.60
2018-09-14T03:08:46.245Z,10.60
2018-09-14T03:11:14.443Z,10.60
2018-09-14T03:13:42.643Z,10.60
2018-09-14T03:16:10.846Z,10.60
2018-09-14T03:18:39.069Z,10.60
2018-09-14T03:21:07.937Z,10.60
2018-09-14T03:23:36.133Z,10.60
2018-09-14T03:26:04.334Z,10.60
2018-09-14T03:28:32.573Z,10.60
2018-09-14T03:31:00.762Z,10.60
2018-09-14T03:33:29.069Z,10.50
2018-09-14T03:35:57.298Z,10.50
2018-09-14T03:38:25.493Z,10.50
2018-09-14T03:40:53.745Z,10.50
2018-09-14T03:43:22.449Z,10.50
2018-09-14T03:45:50.673Z,10.50
2018-09-14T03:48:18.850Z,10.40
2018-09-14T03:50:47.170Z,10.40
2018-09-14T03:53:15.370Z,10.40
2018-09-14T03:55:43.611Z,10.40
2018-09-14T03:58:12.430Z,10.30
2018-09-14T04:00:40.650Z,10.30
2018-09-14T04:03:09.539Z,10.30
2018-09-14T04:05:38.409Z,10.20
2018-09-14T04:08:06.825Z,10.20
2018-09-14T04:10:35.026Z,10.20
2018-09-14T04:13:03.605Z,10.10
2018-09-14T04:15:31.808Z,10.10
2018-09-14T04:18:00.006Z,10.10
2018-09-14T04:20:28.755Z,10.10
2018-09-14T04:22:56.980Z,10.20
2018-09-14T04:25:25.194Z,10.10
2018-09-14T04:27:53.417Z,10.10
2018-09-14T04:30:21.605Z,10.00
2018-09-14T04:32:49.798Z,10.00
2018-09-14T04:35:18.241Z,10.00
2018-09-14T04:37:46.590Z,10.00
2018-09-14T04:40:14.762Z,9.90
2018-09-14T04:42:43.334Z,9.90
2018-09-14T04:45:11.521Z,9.80
2018-09-14T04:47:39.757Z,9.80
2018-09-14T04:50:08.105Z,9.80
2018-09-14T04:52:36.348Z,9.80
2018-09-14T04:55:04.593Z,9.70
2018-09-14T04:57:33.859Z,9.70
2018-09-14T05:00:02.026Z,9.60
2018-09-14T05:02:30.233Z,9.50
2018-09-14T05:04:58.429Z,9.50
2018-09-14T05:07:26.675Z,9.50
2018-09-14T05:09:54.817Z,9.50
2018-09-14T05:12:24.554Z,9.40
2018-09-14T05:14:52.786Z,9.40
2018-09-14T05:17:20.997Z,9.40
2018-09-14T05:19:49.245Z,9.40
2018-09-14T05:22:17.440Z,9.40
2018-09-14T05:24:45.674Z,9.40
2018-09-14T05:27:14.240Z,9.40
2018-09-14T05:29:42.439Z,9.40
2018-09-14T05:32:10.642Z,9.40
2018-09-14T05:34:39.217Z,9.40
2018-09-14T05:37:07.485Z,9.50
2018-09-14T05:39:35.680Z,9.40
2018-09-14T05:42:03.889Z,9.50
2018-09-14T05:44:32.081Z,9.40
2018-09-14T05:47:00.266Z,9.40
2018-09-14T05:49:28.882Z,9.40
2018-09-14T05:51:57.097Z,9.50
2018-09-14T05:54:25.372Z,9.50
2018-09-14T05:56:53.890Z,9.60
2018-09-14T05:59:22.078Z,9.60
2018-09-14T06:01:50.264Z,9.70
2018-09-14T06:04:18.483Z,9.80
2018-09-14T06:06:46.671Z,9.80
2018-09-14T06:09:14.886Z,9.90
2018-09-14T06:11:43.937Z,10.10
2018-09-14T06:14:12.197Z,10.20
2018-09-14T06:16:40.513Z,10.40
2018-09-14T06:19:09.037Z,10.60
2018-09-14T06:21:37.223Z,10.80
2018-09-14T06:24:05.433Z,10.90
2018-09-14T06:26:34.004Z,11.00
2018-09-14T06:29:02.188Z,11.00
2018-09-14T06:31:30.389Z,11.20
2018-09-14T06:33:58.598Z,11.30
2018-09-14T06:36:26.781Z,11.30
2018-09-14T06:38:55.057Z,11.50
2018-09-14T06:41:23.466Z,11.60
2018-09-14T06:43:51.666Z,11.80
2018-09-14T06:46:19.865Z,11.90
2018-09-14T06:48:48.075Z,12.00
2018-09-14T06:51:16.254Z,12.30
2018-09-14T06:53:44.489Z,12.50
2018-09-14T06:56:13.278Z,12.50
2018-09-14T06:58:41.469Z,12.60
2018-09-14T07:01:09.649Z,13.20
2018-09-14T07:03:38.134Z,13.50
2018-09-14T07:06:06.313Z,13.60
2018-09-14T07:08:34.493Z,13.70
2018-09-14T07:11:03.245Z,13.80
2018-09-14T07:13:31.425Z,13.90
2018-09-14T07:15:59.613Z,14.00
2018-09-14T07:18:27.942Z,14.00
2018-09-14T07:20:56.138Z,14.00
2018-09-14T07:23:24.330Z,13.90
2018-09-14T07:25:52.561Z,14.00
2018-09-14T07:28:20.781Z,14.00
2018-09-14T07:30:49.182Z,13.90
2018-09-14T07:33:17.573Z,14.00
2018-09-14T07:35:45.794Z,14.10
2018-09-14T07:38:14.221Z,14.10
2018-09-14T07:40:43.330Z,14.20
2018-09-14T07:43:11.526Z,14.30
2018-09-14T07:45:39.894Z,14.40
2018-09-14T07:48:08.742Z,14.70
2018-09-14T07:50:36.958Z,14.80
2018-09-14T07:53:05.162Z,14.90
2018-09-14T07:55:33.416Z,15.00
2018-09-14T07:58:01.577Z,15.10
2018-09-14T08:00:29.929Z,15.10
2018-09-14T08:02:58.233Z,15.30
2018-09-14T08:05:26.705Z,15.50
2018-09-14T08:07:55.026Z,15.70
2018-09-14T08:10:23.382Z,15.80
2018-09-14T08:12:51.578Z,15.70
2018-09-14T08:15:19.965Z,15.90
2018-09-14T08:17:48.725Z,15.90
2018-09-14T08:20:16.950Z,15.80
2018-09-14T08:22:45.118Z,16.10
2018-09-14T08:25:13.902Z,16.10
2018-09-14T08:27:42.134Z,16.30
2018-09-14T08:30:10.330Z,16.10
2018-09-14T08:32:39.078Z,16.10
2018-09-14T08:35:07.265Z,16.30
2018-09-14T08:37:35.479Z,16.30
2018-09-14T08:40:04.022Z,16.50
2018-09-14T08:42:32.372Z,16.40
2018-09-14T08:45:00.644Z,16.50
2018-09-14T08:47:28.873Z,16.70
2018-09-14T08:49:57.066Z,16.80
2018-09-14T08:52:25.277Z,17.00
2018-09-14T08:54:53.945Z,17.20
2018-09-14T08:57:22.257Z,17.30
2018-09-14T08:59:50.464Z,17.50
2018-09-14T09:02:19.158Z,17.40
2018-09-14T09:04:50.312Z,17.60
2018-09-14T09:07:19.051Z,17.70
2018-09-14T09:09:47.260Z,17.80
2018-09-14T09:12:15.445Z,17.90
2018-09-14T09:14:43.657Z,17.90
2018-09-14T09:17:12.022Z,17.70
2018-09-14T09:19:40.233Z,18.00
2018-09-14T09:22:08.473Z,18.00
2018-09-14T09:24:37.370Z,17.90
2018-09-14T09:27:05.575Z,18.10
2018-09-14T09:29:33.945Z,18.00
2018-09-14T09:32:02.526Z,18.20
2018-09-14T09:34:30.821Z,18.50
2018-09-14T09:36:59.027Z,18.70
2018-09-14T09:39:27.946Z,18.50
2018-09-14T09:41:56.186Z,18.80
2018-09-14T09:44:24.870Z,19.00
2018-09-14T09:46:53.234Z,19.20
2018-09-14T09:49:21.421Z,19.20
2018-09-14T09:51:49.949Z,19.00
2018-09-14T09:54:18.209Z,19.30
2018-09-14T09:56:46.467Z,19.40
2018-09-14T09:59:14.606Z,19.70
2018-09-14T10:01:47.334Z,19.50
2018-09-14T10:05:24.057Z,19.50
2018-09-14T10:07:52.537Z,19.50
2018-09-14T10:10:20.721Z,19.80
2018-09-14T10:12:48.970Z,19.70
2018-09-14T10:15:17.530Z,19.80
2018-09-14T10:17:45.757Z,20.00
2018-09-14T10:20:13.998Z,19.80
2018-09-14T10:22:42.209Z,20.00
2018-09-14T10:25:10.453Z,19.90
2018-09-14T10:27:38.641Z,20.20
2018-09-14T10:30:07.313Z,20.40
2018-09-14T10:32:35.512Z,20.30
2018-09-14T10:35:03.742Z,20.00
2018-09-14T10:37:32.251Z,20.20
2018-09-14T10:40:00.575Z,20.30
2018-09-14T10:42:28.742Z,20.50
2018-09-14T10:44:57.065Z,20.30
2018-09-14T10:47:25.285Z,20.60
2018-09-14T10:49:53.535Z,20.70
2018-09-14T10:52:22.353Z,20.40
2018-09-14T10:54:50.566Z,20.50
2018-09-14T10:57:18.787Z,21.00
2018-09-14T10:59:47.560Z,20.60
2018-09-14T11:02:15.765Z,20.20
2018-09-14T11:04:44.331Z,20.50
2018-09-14T11:07:12.611Z,20.60
2018-09-14T11:09:40.794Z,20.60
2018-09-14T11:12:08.981Z,20.70
2018-09-14T11:14:37.306Z,20.90
2018-09-14T11:17:05.500Z,20.70
2018-09-14T11:19:33.685Z,20.40
2018-09-14T11:22:02.165Z,20.80
2018-09-14T11:24:30.358Z,20.70
2018-09-14T11:26:58.670Z,20.70
2018-09-14T11:29:27.498Z,21.30
2018-09-14T11:31:55.675Z,21.30
2018-09-14T11:34:23.853Z,20.60
2018-09-14T11:36:52.050Z,20.50
2018-09-14T11:39:20.260Z,20.60
2018-09-14T11:41:48.441Z,21.10
2018-09-14T11:44:17.209Z,21.60
2018-09-14T11:46:45.487Z,21.80
2018-09-14T11:49:13.685Z,21.90
2018-09-14T11:51:42.293Z,21.90
2018-09-14T11:54:10.531Z,22.00
2018-09-14T11:56:38.719Z,21.60
2018-09-14T11:59:07.034Z,21.60
2018-09-14T12:01:35.230Z,22.00
2018-09-14T12:04:03.436Z,22.00
2018-09-14T12:06:31.997Z,22.00
2018-09-14T12:09:00.351Z,22.00
2018-09-14T12:11:28.553Z,22.40
2018-09-14T12:13:57.136Z,22.50
2018-09-14T12:16:25.321Z,21.80
2018-09-14T12:18:53.530Z,21.80
2018-09-14T12:21:22.229Z,21.90
2018-09-14T12:23:50.421Z,22.50
2018-09-14T12:26:18.665Z,22.60
2018-09-14T12:28:47.374Z,22.50
2018-09-14T12:31:15.581Z,22.00
2018-09-14T12:33:43.769Z,22.50
2018-09-14T12:36:12.327Z,22.20
2018-09-14T12:38:40.558Z,21.80
2018-09-14T12:41:08.786Z,21.80
2018-09-14T12:43:37.017Z,21.10
2018-09-14T12:46:05.227Z,21.40
2018-09-14T12:48:33.512Z,22.00
2018-09-14T12:51:02.165Z,22.00
2018-09-14T12:53:30.345Z,21.80
2018-09-14T12:55:58.558Z,21.80
2018-09-14T12:58:27.301Z,22.10
2018-09-14T13:00:55.477Z,22.30
2018-09-14T13:03:23.681Z,22.50
2018-09-14T13:05:51.981Z,22.40
2018-09-14T13:08:21.242Z,21.90
2018-09-14T13:10:49.427Z,22.00
2018-09-14T13:13:17.681Z,21.70
2018-09-14T13:15:45.861Z,21.20
2018-09-14T13:18:14.054Z,21.50
2018-09-14T13:20:42.598Z,21.80
2018-09-14T13:23:10.790Z,21.80
2018-09-14T13:25:39.114Z,21.50
2018-09-14T13:28:08.321Z,21.40
2018-09-14T13:30:36.532Z,20.90
2018-09-14T13:33:04.705Z,20.80
2018-09-14T13:35:33.001Z,20.70
2018-09-14T13:38:01.186Z,20.40
2018-09-14T13:40:29.389Z,20.20
2018-09-14T13:42:58.133Z,20.10
2018-09-14T13:45:26.341Z,20.10
2018-09-14T13:47:54.529Z,20.10
2018-09-14T13:50:23.582Z,20.10
2018-09-14T13:52:51.861Z,20.10
2018-09-14T13:55:20.188Z,20.30
2018-09-14T13:57:48.985Z,20.90
2018-09-14T14:00:17.223Z,20.70
2018-09-14T14:02:46.320Z,20.40
2018-09-14T14:05:14.850Z,20.40
2018-09-14T14:07:43.122Z,20.20
2018-09-14T14:10:11.366Z,20.10
2018-09-14T14:12:40.130Z,19.90
2018-09-14T14:15:08.327Z,20.00
2018-09-14T14:17:36.526Z,20.00
2018-09-14T14:20:04.764Z,20.10
2018-09-14T14:22:32.957Z,20.00
2018-09-14T14:25:01.145Z,19.90
2018-09-14T14:27:29.401Z,19.90
2018-09-14T14:29:57.623Z,19.80
2018-09-14T14:32:25.825Z,19.60
2018-09-14T14:34:54.074Z,19.50
2018-09-14T14:37:22.293Z,19.50
2018-09-14T14:39:50.582Z,19.60
2018-09-14T14:42:19.033Z,19.60
2018-09-14T14:44:47.231Z,19.60
2018-09-14T14:47:15.449Z,19.50
2018-09-14T14:49:44.898Z,19.60
2018-09-14T14:52:13.141Z,19.50
2018-09-14T14:54:41.322Z,19.50
2018-09-14T14:57:10.049Z,19.60
2018-09-14T14:59:38.241Z,19.80
2018-09-14T15:02:06.426Z,19.60
2018-09-14T15:04:34.774Z,19.50
2018-09-14T15:07:02.959Z,19.20
2018-09-14T15:09:31.150Z,19.20
2018-09-14T15:11:59.912Z,19.20
2018-09-14T15:14:28.111Z,19.20
2018-09-14T15:16:56.310Z,19.20
2018-09-14T15:19:25.050Z,19.30
2018-09-14T15:21:53.262Z,19.30
2018-09-14T15:24:21.486Z,19.30
2018-09-14T15:26:49.821Z,19.30
2018-09-14T15:29:18.037Z,19.20
2018-09-14T15:31:46.541Z,19.30
2018-09-14T15:34:15.202Z,19.30
2018-09-14T15:36:43.413Z,19.40
2018-09-14T15:39:12.821Z,19.10
2018-09-14T15:41:41.533Z,19.00
2018-09-14T15:44:09.733Z,19.00
2018-09-14T15:46:37.929Z,18.90
2018-09-14T15:49:06.248Z,18.70
2018-09-14T15:51:34.461Z,18.80
2018-09-14T15:54:02.841Z,18.70
2018-09-14T15:56:31.541Z,18.70
2018-09-14T15:58:59.773Z,18.60
2018-09-14T16:01:27.970Z,18.60
2018-09-14T16:03:56.678Z,18.60
2018-09-14T16:06:24.886Z,18.50
2018-09-14T16:08:53.118Z,18.60
2018-09-14T16:11:21.866Z,18.60
2018-09-14T16:13:56.027Z,18.50
2018-09-14T16:16:24.526Z,18.50
2018-09-14T16:18:53.634Z,18.50
2018-09-14T16:21:21.850Z,18.40
2018-09-14T16:23:51.402Z,18.40
2018-09-14T16:26:19.609Z,18.30
2018-09-14T16:28:47.826Z,18.30
2018-09-14T16:31:16.130Z,18.20
2018-09-14T16:33:44.333Z,18.10
2018-09-14T16:36:12.563Z,18.00
2018-09-14T16:38:41.193Z,18.00
2018-09-14T16:41:09.422Z,18.00
2018-09-14T16:43:37.678Z,17.90
2018-09-14T16:46:07.577Z,18.00
2018-09-14T16:48:35.805Z,18.00
2018-09-14T16:51:04.042Z,17.90
2018-09-14T16:53:32.355Z,17.90
2018-09-14T16:56:00.661Z,17.90
2018-09-14T16:58:28.890Z,17.80
2018-09-14T17:00:57.284Z,17.70
2018-09-14T17:03:25.512Z,17.80
2018-09-14T17:05:53.737Z,17.70
2018-09-14T17:08:22.525Z,17.60
2018-09-14T17:10:50.754Z,17.70
2018-09-14T17:13:18.970Z,17.70
2018-09-14T17:15:47.502Z,17.70
2018-09-14T17:18:15.709Z,17.60
2018-09-14T17:20:43.914Z,17.50
2018-09-14T17:23:12.719Z,17.50
2018-09-14T17:25:40.913Z,17.30
2018-09-14T17:28:09.102Z,17.40
2018-09-14T17:30:37.385Z,17.30
2018-09-14T17:33:05.582Z,17.30
2018-09-14T17:35:33.824Z,17.20
2018-09-14T17:38:02.639Z,17.20
2018-09-14T17:40:30.877Z,17.10
2018-09-14T17:42:59.093Z,17.10
2018-09-14T17:45:27.861Z,17.00
2018-09-14T17:47:56.085Z,16.90
2018-09-14T17:50:24.347Z,16.90
2018-09-14T17:52:52.699Z,16.80
2018-09-14T17:55:21.105Z,16.80
2018-09-14T17:57:49.405Z,16.70
2018-09-14T18:00:18.065Z,16.70
2018-09-14T18:02:46.301Z,16.70
2018-09-14T18:05:14.545Z,16.60
2018-09-14T18:07:42.875Z,16.60
2018-09-14T18:10:11.148Z,16.40
2018-09-14T18:12:39.369Z,16.50
2018-09-14T18:15:07.641Z,16.40
2018-09-14T18:17:35.834Z,16.40
2018-09-14T18:20:04.032Z,16.40
2018-09-14T18:22:32.281Z,16.40
2018-09-14T18:25:01.034Z,16.40
2018-09-14T18:27:29.263Z,16.30
2018-09-14T18:29:57.469Z,16.10
2018-09-14T18:32:25.725Z,16.10
2018-09-14T18:34:54.404Z,16.10
2018-09-14T18:37:22.638Z,16.00
2018-09-14T18:39:50.829Z,15.90
2018-09-14T18:42:19.030Z,15.80
2018-09-14T18:44:48.347Z,15.90
2018-09-14T18:47:16.550Z,15.90
2018-09-14T18:49:44.747Z,15.90
2018-09-14T18:52:14.279Z,15.80
2018-09-14T18:54:42.489Z,15.70
2018-09-14T18:57:11.018Z,15.70
2018-09-14T18:59:40.935Z,15.70
2018-09-14T19:02:09.134Z,15.70
2018-09-14T19:04:37.514Z,15.70
2018-09-14T19:07:06.387Z,15.70
2018-09-14T19:09:34.581Z,15.70
2018-09-14T19:12:02.786Z,15.80
2018-09-14T19:14:31.105Z,15.80
2018-09-14T19:16:59.357Z,15.70
2018-09-14T19:19:27.579Z,15.70
2018-09-14T19:21:55.809Z,15.70
2018-09-14T19:24:24.057Z,15.80
2018-09-14T19:26:53.105Z,15.70
2018-09-14T19:29:21.726Z,15.70
2018-09-14T19:31:49.953Z,15.60
2018-09-14T19:34:18.160Z,15.50
2018-09-14T19:36:46.757Z,15.60
2018-09-14T19:39:16.302Z,15.60
2018-09-14T19:41:45.534Z,15.60
2018-09-14T19:44:14.060Z,15.70
2018-09-14T19:46:42.266Z,15.60
2018-09-14T19:49:10.456Z,15.60
2018-09-14T19:51:39.344Z,15.60
2018-09-14T19:54:08.045Z,15.60
2018-09-14T19:56:36.245Z,15.60
2018-09-14T19:59:05.001Z,15.60
2018-09-14T20:01:33.295Z,15.50
2018-09-14T20:04:01.473Z,15.50
2018-09-14T20:06:29.685Z,15.50
2018-09-14T20:08:57.881Z,15.40
2018-09-14T20:11:26.074Z,15.40
2018-09-14T20:13:54.499Z,15.50
2018-09-14T20:16:22.685Z,15.50
2018-09-14T20:18:50.881Z,15.50
2018-09-14T20:21:19.521Z,15.50
2018-09-14T20:23:47.742Z,15.50
2018-09-14T20:26:15.943Z,15.50
2018-09-14T20:28:44.177Z,15.40
2018-09-14T20:31:12.373Z,15.50
2018-09-14T20:33:40.566Z,15.40
2018-09-14T20:36:09.150Z,15.40
2018-09-14T20:38:37.366Z,15.40
2018-09-14T20:41:05.582Z,15.30
2018-09-14T20:43:33.922Z,15.30
2018-09-14T20:46:02.026Z,15.40
2018-09-14T20:48:30.306Z,15.20
2018-09-14T20:50:58.873Z,15.30
2018-09-14T20:53:27.090Z,15.30
2018-09-14T20:55:55.320Z,15.30
2018-09-14T20:58:24.060Z,15.30
2018-09-14T21:00:52.230Z,15.30
2018-09-14T21:03:20.823Z,15.20
2018-09-14T21:05:49.157Z,15.20
2018-09-14T21:08:17.381Z,15.30
2018-09-14T21:10:45.597Z,15.20
2018-09-14T21:13:14.917Z,15.20
2018-09-14T21:15:43.144Z,15.20
2018-09-14T21:18:11.368Z,15.20
2018-09-14T21:20:40.169Z,15.30
2018-09-14T21:23:08.389Z,15.30
2018-09-14T21:25:36.607Z,15.30
2018-09-14T21:28:04.896Z,15.40
2018-09-14T21:30:33.093Z,15.40
2018-09-14T21:33:01.289Z,15.40
2018-09-14T21:35:29.534Z,15.40
2018-09-14T21:37:57.746Z,15.40
2018-09-14T21:40:25.941Z,15.40
2018-09-14T21:42:54.786Z,15.40
2018-09-14T21:45:22.970Z,15.40
2018-09-14T21:47:51.174Z,15.40
2018-09-14T21:50:19.385Z,15.40
2018-09-14T21:52:47.585Z,15.40
2018-09-14T21:55:15.793Z,15.30
2018-09-14T21:57:44.450Z,15.30
2018-09-14T22:02:56.593Z,15.20
2018-09-14T22:05:24.889Z,15.10
2018-09-14T22:07:53.085Z,15.10
2018-09-14T22:10:26.985Z,15.10
2018-09-14T22:12:55.178Z,15.00
2018-09-14T22:15:23.373Z,15.00
2018-09-14T22:17:51.649Z,15.00
2018-09-14T22:20:19.857Z,14.90
2018-09-14T22:22:48.057Z,14.90
2018-09-14T22:25:16.290Z,14.90
2018-09-14T22:27:44.548Z,14.80
2018-09-14T22:30:12.819Z,14.80
2018-09-14T22:32:41.751Z,14.80
2018-09-14T22:35:10.015Z,14.80
2018-09-14T22:37:38.206Z,14.70
2018-09-14T22:40:06.871Z,14.60
2018-09-14T22:42:35.366Z,14.60
2018-09-14T22:45:03.596Z,14.60
2018-09-14T22:47:31.968Z,14.60
2018-09-14T22:50:00.208Z,14.50
2018-09-14T22:52:28.461Z,14.50
2018-09-14T22:54:57.161Z,14.50
2018-09-14T22:57:25.375Z,14.50
2018-09-14T22:59:53.577Z,14.50
2018-09-14T23:02:21.783Z,14.50
2018-09-14T23:04:49.977Z,14.60
2018-09-14T23:07:18.263Z,14.60
2018-09-14T23:09:46.474Z,14.60
2018-09-14T23:12:14.656Z,14.60
2018-09-14T23:14:42.873Z,14.50
2018-09-14T23:17:11.425Z,14.60
2018-09-14T23:19:39.633Z,14.50
2018-09-14T23:22:07.829Z,14.50
2018-09-14T23:24:36.073Z,14.60
2018-09-14T23:27:04.289Z,14.60
2018-09-14T23:29:32.502Z,14.60
2018-09-14T23:32:01.289Z,14.50
2018-09-14T23:34:29.496Z,14.50
2018-09-14T23:36:57.705Z,14.50
2018-09-14T23:39:26.421Z,14.50
2018-09-14T23:41:54.620Z,14.50
2018-09-14T23:44:22.829Z,14.50
2018-09-14T23:46:51.049Z,14.40
2018-09-14T23:49:19.237Z,14.40
2018-09-14T23:51:47.561Z,14.40
2018-09-14T23:54:15.813Z,14.40
2018-09-14T23:56:44.009Z,14.50
2018-09-14T23:59:12.194Z,14.50
